Time;durP1;ratioP1;P1;durP2;ratioP2;P2;SDS_P1;SDS_P2;PMS_P1;PMS_P2;Temp;Humidity;BMP_temperature;BMP_pressure;BME280_temperature;BME280_humidity;BME280_pressure;Samples;Min_cycle;Max_cycle;Signal;HPM_P1;HPM_P2
2023/01/14 00:01:21;;;;;;;35.50;4.63;;;6.80;99.90;;;;;;6182112;23;20104;-81
2023/01/14 00:03:47;;;;;;;43.88;5.10;;;6.70;99.90;;;;;;6183998;23;20023;-83
2023/01/14 00:06:16;;;;;;;23.95;3.38;;;7.20;99.90;;;;;;6185688;23;20012;-81
2023/01/14 00:08:41;;;;;;;48.95;5.35;;;7.10;99.90;;;;;;6210011;23;20027;-86
2023/01/14 00:11:12;;;;;;;34.72;4.43;;;6.90;99.90;;;;;;6182358;23;20009;-83
2023/01/14 00:13:39;;;;;;;42.60;4.57;;;7.00;99.90;;;;;;6208068;23;20119;-83
2023/01/14 00:16:07;;;;;;;31.23;3.80;;;6.80;99.90;;;;;;6181563;23;20020;-84
2023/01/14 00:18:34;;;;;;;32.85;4.00;;;7.00;99.90;;;;;;6208695;23;20024;-84
2023/01/14 00:21:06;;;;;;;46.95;4.93;;;6.90;99.90;;;;;;6208745;23;20023;-81
2023/01/14 00:23:34;;;;;;;38.03;4.32;;;7.30;99.90;;;;;;6181741;23;20023;-81
2023/01/14 00:26:05;;;;;;;33.85;5.15;;;6.90;99.90;;;;;;6207481;23;20025;-80
2023/01/14 00:28:31;;;;;;;34.22;4.72;;;7.10;99.90;;;;;;6206656;22;20309;-84
2023/01/14 00:31:09;;;;;;;29.50;4.90;;;6.90;99.90;;;;;;6212012;23;20023;-81
2023/01/14 00:33:35;;;;;;;37.63;4.68;;;6.60;99.90;;;;;;6215840;23;20087;-86
2023/01/14 00:36:01;;;;;;;31.30;4.22;;;6.50;99.90;;;;;;6211538;23;20008;-81
2023/01/14 00:38:27;;;;;;;34.25;4.30;;;6.70;99.90;;;;;;6213051;23;20031;-81
2023/01/14 00:41:03;;;;;;;23.45;3.42;;;6.90;99.90;;;;;;6189893;23;20086;-81
2023/01/14 00:43:29;;;;;;;31.95;3.75;;;6.90;99.90;;;;;;6189719;23;20015;-80
2023/01/14 00:45:55;;;;;;;27.30;4.30;;;6.90;99.90;;;;;;6216834;23;20012;-84
2023/01/14 00:48:20;;;;;;;29.10;4.20;;;6.70;99.90;;;;;;6191982;23;20008;-85
2023/01/14 00:50:46;;;;;;;37.15;4.80;;;6.30;99.90;;;;;;6189802;23;20799;-81
2023/01/14 00:53:11;;;;;;;32.53;4.30;;;6.80;99.90;;;;;;6214832;23;20004;-85
2023/01/14 00:55:37;;;;;;;30.77;3.50;;;6.60;99.90;;;;;;6214736;23;20040;-83
2023/01/14 00:58:03;;;;;;;27.42;3.92;;;6.90;99.90;;;;;;6190151;23;20111;-81
2023/01/14 01:00:28;;;;;;;22.70;3.55;;;6.90;99.90;;;;;;6192497;23;20074;-81
2023/01/14 01:02:54;;;;;;;23.27;3.17;;;6.70;99.90;;;;;;6224423;23;20008;-84
2023/01/14 01:05:20;;;;;;;34.42;4.07;;;7.00;99.90;;;;;;6213222;22;20012;-83
2023/01/14 01:07:45;;;;;;;30.23;4.07;;;6.90;99.90;;;;;;6187873;23;20027;-83
2023/01/14 01:10:11;;;;;;;28.85;4.22;;;6.90;99.90;;;;;;6190746;23;20016;-81
2023/01/14 01:12:37;;;;;;;30.92;3.85;;;6.90;99.90;;;;;;6216898;23;20102;-82
2023/01/14 01:15:03;;;;;;;29.25;3.70;;;7.00;99.90;;;;;;6188085;23;20508;-84
2023/01/14 01:17:28;;;;;;;28.70;3.92;;;6.90;99.90;;;;;;6188225;23;20008;-82
2023/01/14 01:19:54;;;;;;;28.20;3.63;;;6.90;99.90;;;;;;6187860;23;20016;-85
2023/01/14 01:22:21;;;;;;;34.95;4.25;;;7.20;99.90;;;;;;6187519;23;20130;-83
2023/01/14 01:24:46;;;;;;;30.73;4.32;;;6.80;99.90;;;;;;6188208;23;20016;-84
2023/01/14 01:27:12;;;;;;;34.03;4.47;;;7.20;99.90;;;;;;6188395;23;20008;-81
2023/01/14 01:29:38;;;;;;;37.03;3.70;;;7.00;99.90;;;;;;6215473;23;20046;-84
2023/01/14 01:32:04;;;;;;;31.05;4.03;;;7.20;99.90;;;;;;6212947;23;20072;-81
2023/01/14 01:34:30;;;;;;;23.75;2.60;;;7.00;99.90;;;;;;6211866;23;20008;-80
2023/01/14 01:36:55;;;;;;;33.42;3.72;;;7.10;99.90;;;;;;6211888;23;20428;-81
2023/01/14 01:39:21;;;;;;;30.77;4.03;;;7.10;99.90;;;;;;6188210;23;20312;-81
2023/01/14 01:41:47;;;;;;;29.88;3.75;;;6.90;99.90;;;;;;6215481;23;20136;-82
2023/01/14 01:44:12;;;;;;;23.10;2.92;;;7.00;99.90;;;;;;6191096;23;20698;-80
2023/01/14 01:46:39;;;;;;;30.23;4.32;;;6.90;99.90;;;;;;6216155;22;20016;-81
2023/01/14 01:49:16;;;;;;;28.98;3.85;;;7.10;99.90;;;;;;6242960;22;20015;-80
2023/01/14 01:51:55;;;;;;;35.72;4.07;;;7.20;99.90;;;;;;6242599;23;20034;-81
2023/01/14 01:54:26;;;;;;;29.60;3.55;;;7.00;99.90;;;;;;6210146;23;20024;-81
2023/01/14 01:56:53;;;;;;;31.92;4.07;;;7.00;99.90;;;;;;6216530;23;20004;-83
2023/01/14 01:59:23;;;;;;;23.02;3.42;;;6.70;99.90;;;;;;6193354;23;20016;-81
2023/01/14 02:01:51;;;;;;;31.83;3.70;;;6.60;99.90;;;;;;6225670;23;20063;-81
2023/01/14 02:04:16;;;;;;;28.85;4.05;;;6.40;99.90;;;;;;6192803;23;20078;-84
2023/01/14 02:06:42;;;;;;;29.13;4.05;;;6.40;99.90;;;;;;6212824;23;20023;-84
2023/01/14 02:09:08;;;;;;;35.47;4.28;;;6.60;99.90;;;;;;6211895;23;20027;-81
2023/01/14 02:11:45;;;;;;;30.45;4.05;;;6.40;99.90;;;;;;6186629;23;20026;-80
2023/01/14 02:15:03;;;;;;;30.33;3.40;;;6.60;99.90;;;;;;6188812;23;20495;-84
2023/01/14 02:17:35;;;;;;;29.05;3.92;;;6.40;99.90;;;;;;6187520;23;20079;-82
2023/01/14 02:20:15;;;;;;;33.15;3.83;;;6.20;99.90;;;;;;6212833;23;20296;-81
2023/01/14 02:22:59;;;;;;;41.35;4.47;;;6.60;99.90;;;;;;6194580;23;20015;-80
2023/01/14 02:26:09;;;;;;;27.05;3.88;;;6.20;99.90;;;;;;6216459;23;20023;-81
2023/01/14 02:29:13;;;;;;;34.78;4.00;;;6.30;99.90;;;;;;6063711;23;20033;-80
2023/01/14 02:31:39;;;;;;;32.78;4.55;;;6.50;99.90;;;;;;5926829;24;20461;-81
2023/01/14 02:34:19;;;;;;;31.13;4.15;;;6.10;99.90;;;;;;5926977;24;20017;-84
2023/01/14 02:36:56;;;;;;;33.13;3.92;;;6.20;99.90;;;;;;5951093;24;20402;-83
2023/01/14 02:39:44;;;;;;;33.80;4.03;;;6.30;99.90;;;;;;5928757;24;20064;-85
2023/01/14 02:45:28;;;;;;;30.67;3.65;;;6.20;99.90;;;;;;5977476;24;20026;-81
2023/01/14 02:47:56;;;;;;;39.63;4.82;;;5.90;99.90;;;;;;5950886;24;20024;-84
2023/01/14 02:50:23;;;;;;;32.50;4.25;;;6.20;99.90;;;;;;5926986;24;20021;-82
2023/01/14 02:52:48;;;;;;;29.65;4.00;;;6.00;99.90;;;;;;5928322;24;20020;-84
2023/01/14 02:55:28;;;;;;;26.52;3.70;;;5.90;99.90;;;;;;5930353;24;20744;-81
2023/01/14 02:58:11;;;;;;;46.53;4.28;;;5.80;99.90;;;;;;5930247;24;20022;-81
2023/01/14 03:00:52;;;;;;;37.60;4.13;;;6.10;99.90;;;;;;5930785;24;20068;-83
2023/01/14 03:03:50;;;;;;;30.38;3.50;;;6.00;99.90;;;;;;6051371;23;20085;-82
2023/01/14 03:06:54;;;;;;;24.45;3.88;;;6.00;99.90;;;;;;6090128;23;20185;-84
2023/01/14 03:09:44;;;;;;;35.20;4.50;;;6.30;99.90;;;;;;6188823;23;20404;-84
2023/01/14 03:12:32;;;;;;;39.65;4.90;;;6.20;99.90;;;;;;6161683;23;20090;-85
2023/01/14 03:15:24;;;;;;;37.03;4.40;;;6.00;99.90;;;;;;6186332;23;20044;-82
2023/01/14 03:18:04;;;;;;;33.40;3.78;;;6.00;99.90;;;;;;6209975;23;20019;-84
2023/01/14 03:20:33;;;;;;;37.15;4.53;;;6.20;99.90;;;;;;6185757;23;20048;-84
2023/01/14 03:23:05;;;;;;;29.05;3.67;;;6.30;99.90;;;;;;6210661;23;20111;-81
2023/01/14 03:25:35;;;;;;;29.40;3.67;;;6.10;99.90;;;;;;6185919;23;20008;-81
2023/01/14 03:28:05;;;;;;;32.08;4.10;;;6.00;99.90;;;;;;6184933;23;20013;-82
2023/01/14 03:30:35;;;;;;;23.02;4.30;;;6.20;99.90;;;;;;6184129;23;20021;-84
2023/01/14 03:33:10;;;;;;;27.92;3.10;;;6.20;99.90;;;;;;6217241;23;20012;-82
2023/01/14 03:35:42;;;;;;;30.33;4.20;;;6.00;99.90;;;;;;6187222;23;20012;-83
2023/01/14 03:38:18;;;;;;;29.85;4.07;;;5.90;99.90;;;;;;6182548;23;20024;-84
2023/01/14 03:40:46;;;;;;;31.90;4.03;;;6.10;99.90;;;;;;6209040;23;20009;-81
2023/01/14 03:43:26;;;;;;;30.02;3.92;;;5.70;99.90;;;;;;6184017;23;20008;-82
2023/01/14 03:45:53;;;;;;;24.55;3.95;;;5.50;99.90;;;;;;6183850;23;20051;-82
2023/01/14 03:48:19;;;;;;;35.90;4.50;;;5.70;99.90;;;;;;6183208;23;20091;-85
2023/01/14 03:51:05;;;;;;;33.22;3.60;;;5.80;99.90;;;;;;6209197;23;20055;-82
2023/01/14 03:54:09;;;;;;;37.72;4.25;;;5.70;99.90;;;;;;6184770;23;20009;-82
2023/01/14 03:56:56;;;;;;;31.75;4.07;;;5.40;99.90;;;;;;6066481;23;20054;-82
2023/01/14 03:59:34;;;;;;;27.15;3.60;;;5.70;99.90;;;;;;6042776;23;20131;-84
2023/01/14 04:02:03;;;;;;;27.73;3.72;;;5.40;99.90;;;;;;6041587;23;20497;-82
2023/01/14 04:04:31;;;;;;;30.65;4.03;;;5.30;99.90;;;;;;6067245;23;20046;-80
2023/01/14 04:06:57;;;;;;;30.65;4.00;;;5.40;99.90;;;;;;6066569;23;20029;-81
2023/01/14 04:09:23;;;;;;;31.42;4.05;;;5.50;99.90;;;;;;6042646;23;20050;-81
2023/01/14 04:11:48;;;;;;;37.15;4.25;;;5.30;99.90;;;;;;6067036;23;20011;-81
2023/01/14 04:16:58;;;;;;;30.75;3.53;;;5.20;99.90;;;;;;6066781;23;20018;-83
2023/01/14 04:19:24;;;;;;;39.10;4.10;;;5.40;99.90;;;;;;6043306;23;20018;-82
2023/01/14 04:21:49;;;;;;;32.95;4.10;;;5.20;99.90;;;;;;6066555;23;20014;-84
2023/01/14 04:24:15;;;;;;;37.67;3.95;;;5.60;99.90;;;;;;6042314;23;20359;-81
2023/01/14 04:26:41;;;;;;;36.03;3.90;;;5.40;99.90;;;;;;6067290;23;20077;-84
2023/01/14 04:29:07;;;;;;;30.17;4.15;;;5.10;99.90;;;;;;6042139;23;20097;-81
2023/01/14 04:31:32;;;;;;;35.15;4.05;;;5.40;99.90;;;;;;6067200;23;20054;-81
2023/01/14 04:33:58;;;;;;;35.00;3.58;;;5.20;99.90;;;;;;6188937;23;20083;-81
2023/01/14 04:36:24;;;;;;;31.23;4.28;;;5.50;99.90;;;;;;6212388;23;20020;-84
2023/01/14 04:38:49;;;;;;;37.60;5.03;;;5.20;99.90;;;;;;6183825;23;20013;-82
2023/01/14 04:43:59;;;;;;;27.10;3.60;;;5.40;99.90;;;;;;6211127;23;20020;-83
2023/01/14 04:46:26;;;;;;;39.50;4.13;;;5.50;99.90;;;;;;6186380;23;20025;-81
2023/01/14 04:48:53;;;;;;;30.92;3.42;;;5.00;99.90;;;;;;6187555;23;20013;-83
2023/01/14 04:51:19;;;;;;;27.38;3.80;;;5.10;99.90;;;;;;6187823;23;20013;-83
2023/01/14 04:53:44;;;;;;;27.00;3.83;;;5.50;99.90;;;;;;6212985;23;20082;-84
2023/01/14 04:56:10;;;;;;;33.13;4.50;;;5.00;99.90;;;;;;6187680;23;20008;-83
2023/01/14 04:58:36;;;;;;;30.10;4.03;;;5.10;99.90;;;;;;6186866;23;20090;-84
2023/01/14 05:01:21;;;;;;;26.95;3.13;;;5.20;99.90;;;;;;6188169;23;20448;-85
2023/01/14 05:03:47;;;;;;;27.52;3.45;;;5.20;99.90;;;;;;6186833;23;20090;-81
2023/01/14 05:06:13;;;;;;;29.65;3.97;;;5.20;99.90;;;;;;6217543;23;20016;-81
2023/01/14 05:08:38;;;;;;;34.80;4.07;;;5.30;99.90;;;;;;6200568;23;20440;-81
2023/01/14 05:11:04;;;;;;;30.65;3.50;;;5.00;99.90;;;;;;6201422;23;20064;-82
2023/01/14 05:13:30;;;;;;;40.17;4.60;;;5.50;99.90;;;;;;6205826;23;20013;-81
2023/01/14 05:16:03;;;;;;;23.85;3.65;;;5.30;99.90;;;;;;6209079;23;20013;-83
2023/01/14 05:18:29;;;;;;;26.83;3.50;;;5.20;99.90;;;;;;6211338;23;20100;-81
2023/01/14 05:20:55;;;;;;;27.80;4.05;;;5.10;99.90;;;;;;6186251;23;20459;-84
2023/01/14 05:23:20;;;;;;;35.47;4.07;;;5.50;99.90;;;;;;6188708;23;20088;-80
2023/01/14 05:25:47;;;;;;;36.03;3.90;;;5.40;99.90;;;;;;6200489;23;20027;-82
2023/01/14 05:28:15;;;;;;;29.52;3.72;;;5.40;99.90;;;;;;6200393;23;20012;-81
2023/01/14 05:34:44;;;;;;;22.90;3.85;;;5.10;99.90;;;;;;6238698;23;20027;-81
2023/01/14 05:37:10;;;;;;;;;;;5.00;99.90;;;;;;6238395;23;20027;-82
2023/01/14 05:39:35;;;;;;;36.97;3.88;;;5.10;99.90;;;;;;6212503;23;19919;-81
2023/01/14 05:47:29;;;;;;;33.08;3.97;;;5.50;99.90;;;;;;6209019;23;20017;-82
2023/01/14 05:49:55;;;;;;;28.42;3.50;;;5.30;99.90;;;;;;6184790;23;20147;-84
2023/01/14 05:52:20;;;;;;;28.58;4.38;;;5.50;99.90;;;;;;6187109;23;20017;-85
2023/01/14 05:54:46;;;;;;;23.90;4.20;;;5.30;99.90;;;;;;6213253;23;20005;-83
2023/01/14 05:57:13;;;;;;;34.40;4.40;;;5.30;99.90;;;;;;6188332;23;20008;-85
2023/01/14 05:59:39;;;;;;;34.33;3.70;;;5.60;99.90;;;;;;6187934;23;20012;-83
2023/01/14 06:08:30;;;;;;;40.95;4.15;;;5.60;99.90;;;;;;6212569;23;20102;-84
2023/01/14 06:10:55;;;;;;;34.47;4.05;;;5.30;99.90;;;;;;6186832;23;20048;-84
2023/01/14 06:13:24;;;;;;;36.55;4.93;;;5.30;99.90;;;;;;6211955;23;20442;-84
2023/01/14 06:15:52;;;;;;;34.05;4.20;;;5.50;99.90;;;;;;6187347;23;20066;-84
2023/01/14 06:18:22;;;;;;;33.38;4.55;;;5.50;99.90;;;;;;6186412;23;20017;-85
2023/01/14 06:20:53;;;;;;;29.35;4.45;;;5.20;99.90;;;;;;6186158;23;20039;-83
2023/01/14 06:23:21;;;;;;;31.00;4.03;;;5.40;99.90;;;;;;6208940;23;20031;-82
2023/01/14 06:25:48;;;;;;;29.35;4.82;;;5.10;99.90;;;;;;6209678;23;20024;-82
2023/01/14 06:28:15;;;;;;;30.30;4.60;;;5.20;99.90;;;;;;6183863;23;20312;-81
2023/01/14 06:31:15;;;;;;;42.20;4.97;;;5.40;99.90;;;;;;6183383;23;20074;-84
2023/01/14 06:33:42;;;;;;;46.47;4.47;;;5.50;99.90;;;;;;6210213;23;20016;-83
2023/01/14 06:36:09;;;;;;;34.88;4.78;;;5.20;99.90;;;;;;6184276;23;20031;-83
2023/01/14 06:38:36;;;;;;;29.15;4.60;;;5.40;99.90;;;;;;6184559;23;20025;-84
2023/01/14 06:41:02;;;;;;;44.97;4.80;;;5.20;99.90;;;;;;6183083;23;20086;-83
2023/01/14 06:43:28;;;;;;;30.02;5.28;;;5.70;99.90;;;;;;6209893;23;20444;-82
2023/01/14 06:45:55;;;;;;;26.52;4.80;;;5.20;99.90;;;;;;6186179;23;20139;-84
2023/01/14 06:48:21;;;;;;;40.83;5.78;;;5.30;99.90;;;;;;6210135;23;20047;-82
2023/01/14 06:50:47;;;;;;;47.33;5.95;;;5.40;99.90;;;;;;6183911;23;20852;-82
2023/01/14 06:53:12;;;;;;;38.63;5.78;;;5.70;99.90;;;;;;6182643;23;20013;-81
2023/01/14 06:55:38;;;;;;;38.70;6.05;;;5.30;99.90;;;;;;6184687;23;20142;-83
2023/01/14 06:58:04;;;;;;;30.77;5.43;;;5.40;99.90;;;;;;6183484;23;20023;-84
2023/01/14 07:00:30;;;;;;;43.28;6.07;;;5.20;99.90;;;;;;6208558;23;20107;-83
2023/01/14 07:02:55;;;;;;;46.58;7.35;;;5.20;99.90;;;;;;6209576;23;20016;-82
2023/01/14 07:05:21;;;;;;;48.58;6.57;;;5.50;99.90;;;;;;6183996;23;20095;-81
2023/01/14 07:07:48;;;;;;;42.80;6.97;;;5.50;99.90;;;;;;6183958;23;20027;-84
2023/01/14 07:10:15;;;;;;;45.17;7.00;;;5.60;99.90;;;;;;6184173;23;20016;-82
2023/01/14 07:12:48;;;;;;;39.05;7.68;;;5.60;99.90;;;;;;6183644;23;20017;-82
2023/01/14 07:15:15;;;;;;;43.97;7.43;;;5.50;99.90;;;;;;6184590;23;20023;-84
2023/01/14 07:17:42;;;;;;;45.88;6.72;;;5.60;99.90;;;;;;6184308;23;20027;-82
2023/01/14 07:20:09;;;;;;;40.28;7.53;;;5.60;99.90;;;;;;6184830;23;20020;-81
2023/01/14 07:22:35;;;;;;;41.38;7.75;;;5.50;99.90;;;;;;6211552;23;20024;-85
2023/01/14 07:25:01;;;;;;;48.35;7.28;;;5.40;99.90;;;;;;6185014;23;20023;-85
2023/01/14 07:27:30;;;;;;;51.63;7.60;;;5.70;99.90;;;;;;6187417;23;20309;-84
2023/01/14 07:29:56;;;;;;;41.72;6.90;;;5.80;99.90;;;;;;6213754;23;20151;-82
2023/01/14 07:32:22;;;;;;;54.78;7.50;;;5.80;99.90;;;;;;6186467;23;20013;-84
2023/01/14 07:34:47;;;;;;;40.67;6.53;;;5.60;99.90;;;;;;6186129;23;20023;-83
2023/01/14 07:37:13;;;;;;;39.67;6.53;;;5.80;99.90;;;;;;6186695;23;20009;-86
2023/01/14 07:39:39;;;;;;;53.17;7.60;;;5.50;99.90;;;;;;6184792;23;20028;-85
2023/01/14 07:42:05;;;;;;;37.53;6.75;;;5.80;99.90;;;;;;6214138;23;20020;-84
2023/01/14 07:44:31;;;;;;;52.58;7.50;;;5.70;99.90;;;;;;6185770;23;20195;-83
2023/01/14 07:46:58;;;;;;;44.83;6.82;;;5.60;99.90;;;;;;6186031;23;20028;-82
2023/01/14 07:49:24;;;;;;;52.72;6.50;;;5.90;99.90;;;;;;6187848;23;20020;-81
2023/01/14 07:51:51;;;;;;;52.15;7.18;;;5.80;99.90;;;;;;6186956;23;20060;-82
2023/01/14 07:54:17;;;;;;;45.60;7.70;;;5.50;99.90;;;;;;6186897;23;20009;-82
2023/01/14 07:56:44;;;;;;;43.60;7.50;;;5.80;99.90;;;;;;6188848;23;20013;-82
2023/01/14 07:59:10;;;;;;;47.22;7.30;;;6.00;99.90;;;;;;6199469;23;20352;-79
2023/01/14 08:01:36;;;;;;;46.15;7.43;;;5.60;99.90;;;;;;6197274;23;20020;-81
2023/01/14 08:04:02;;;;;;;44.55;6.68;;;6.00;99.90;;;;;;6185812;23;20016;-84
2023/01/14 08:06:28;;;;;;;53.13;6.72;;;5.80;99.90;;;;;;6185392;23;20059;-82
2023/01/14 08:08:53;;;;;;;48.97;6.85;;;6.20;99.90;;;;;;6211801;23;20013;-82
2023/01/14 08:11:20;;;;;;;42.60;6.53;;;5.70;99.90;;;;;;6210489;23;20020;-82
2023/01/14 08:13:45;;;;;;;40.22;6.40;;;5.70;99.90;;;;;;6185741;23;20031;-82
2023/01/14 08:16:13;;;;;;;46.67;6.65;;;6.00;99.90;;;;;;6208712;23;20347;-81
2023/01/14 08:18:38;;;;;;;43.55;6.65;;;5.90;99.90;;;;;;6211096;23;20057;-81
2023/01/14 08:21:06;;;;;;;39.65;6.18;;;5.70;99.90;;;;;;6184810;23;20066;-81
2023/01/14 08:23:34;;;;;;;48.70;6.65;;;5.80;99.90;;;;;;6210150;23;20036;-83
2023/01/14 08:26:01;;;;;;;44.88;7.93;;;5.80;99.90;;;;;;6211263;23;20021;-82
2023/01/14 08:28:28;;;;;;;43.45;6.60;;;5.80;99.90;;;;;;6210389;23;20016;-80
2023/01/14 08:31:08;;;;;;;42.03;6.70;;;5.80;99.90;;;;;;6182903;23;20109;-83
2023/01/14 08:33:35;;;;;;;38.55;6.93;;;5.80;99.90;;;;;;6211905;23;20453;-82
2023/01/14 08:36:09;;;;;;;46.17;6.55;;;6.20;99.90;;;;;;6185192;23;20024;-85
2023/01/14 08:38:37;;;;;;;45.97;6.47;;;6.20;99.90;;;;;;6209453;23;20195;-82
2023/01/14 08:41:10;;;;;;;52.88;6.95;;;6.10;99.90;;;;;;6183671;23;20020;-84
2023/01/14 08:43:36;;;;;;;42.90;6.55;;;5.70;99.90;;;;;;6160788;23;20112;-83
2023/01/14 08:46:03;;;;;;;44.50;6.53;;;5.80;99.90;;;;;;6214212;23;20016;-83
2023/01/14 08:51:09;;;;;;;46.88;5.43;;;5.70;99.90;;;;;;6260464;22;20071;-84
2023/01/14 08:53:37;;;;;;;39.30;5.80;;;5.80;99.90;;;;;;6220474;23;20072;-84
2023/01/14 08:56:04;;;;;;;40.92;5.68;;;6.10;99.90;;;;;;6214257;23;20202;-85
2023/01/14 08:58:31;;;;;;;38.28;6.75;;;6.00;99.90;;;;;;6243065;23;20704;-83
2023/01/14 09:01:02;;;;;;;42.22;5.85;;;5.80;99.90;;;;;;6218319;23;20423;-84
2023/01/14 09:03:30;;;;;;;45.00;6.22;;;5.90;99.90;;;;;;6235302;23;20013;-84
2023/01/14 09:06:07;;;;;;;40.05;6.43;;;6.00;99.90;;;;;;6229416;23;20023;-82
2023/01/14 09:17:12;;;;;;;40.65;5.82;;;6.20;99.90;;;;;;6224045;23;20020;-85
2023/01/14 09:19:46;;;;;;;37.65;6.22;;;5.90;99.90;;;;;;6191735;23;20016;-83
2023/01/14 09:22:18;;;;;;;36.63;6.30;;;6.30;99.90;;;;;;6187070;23;20029;-82
2023/01/14 09:24:44;;;;;;;38.60;6.07;;;6.40;99.90;;;;;;6219558;23;20233;-85
2023/01/14 09:27:09;;;;;;;30.85;4.95;;;6.20;99.90;;;;;;6219118;23;20020;-81
2023/01/14 09:29:35;;;;;;;37.97;5.35;;;5.80;99.90;;;;;;6223909;23;20012;-82
2023/01/14 09:32:01;;;;;;;35.53;5.70;;;6.40;99.90;;;;;;6198942;23;20416;-84
2023/01/14 09:34:27;;;;;;;25.17;5.03;;;5.80;99.90;;;;;;6210864;23;20016;-85
2023/01/14 09:36:54;;;;;;;33.88;5.75;;;6.30;99.90;;;;;;6212115;23;20646;-83
2023/01/14 09:39:20;;;;;;;26.52;5.75;;;5.80;99.90;;;;;;6186580;23;20062;-88
2023/01/14 09:41:53;;;;;;;30.63;5.93;;;5.80;99.90;;;;;;6184581;23;20059;-86
2023/01/14 09:44:20;;;;;;;37.70;5.88;;;6.40;99.90;;;;;;6210822;23;20079;-85
2023/01/14 09:46:46;;;;;;;35.38;5.55;;;5.80;99.90;;;;;;6184802;23;20012;-84
2023/01/14 09:49:16;;;;;;;30.70;5.13;;;5.90;99.90;;;;;;6186652;23;20044;-81
2023/01/14 09:52:09;;;;;;;33.10;5.85;;;6.40;99.90;;;;;;6188383;23;20243;-82
2023/01/14 09:54:48;;;;;;;29.63;5.50;;;6.30;99.90;;;;;;6193231;23;20025;-84
2023/01/14 09:57:29;;;;;;;30.23;5.65;;;5.90;99.90;;;;;;6194299;23;20536;-81
2023/01/14 10:00:03;;;;;;;24.30;4.90;;;5.80;99.90;;;;;;6222459;23;20135;-86
2023/01/14 10:06:17;;;;;;;18.27;3.42;;;5.90;99.90;;;;;;6213224;23;20088;-84
2023/01/14 10:08:53;;;;;;;22.45;3.65;;;5.90;99.90;;;;;;6186879;23;20306;-84
2023/01/14 10:11:22;;;;;;;24.17;3.70;;;6.20;99.90;;;;;;6188169;23;20084;-83
2023/01/14 10:13:57;;;;;;;18.52;3.55;;;6.30;99.90;;;;;;6218688;23;20017;-82
2023/01/14 10:16:50;;;;;;;20.90;3.40;;;6.50;99.90;;;;;;6217714;23;20313;-86
2023/01/14 10:19:36;;;;;;;20.33;3.05;;;6.00;99.90;;;;;;6190569;23;20778;-84
2023/01/14 10:22:25;;;;;;;16.73;3.08;;;6.10;99.90;;;;;;6219301;23;20023;-84
2023/01/14 10:24:51;;;;;;;15.60;3.03;;;6.20;99.90;;;;;;6183050;23;20020;-85
2023/01/14 10:27:18;;;;;;;18.15;3.08;;;6.60;99.90;;;;;;6210465;23;20012;-83
2023/01/14 10:29:46;;;;;;;13.27;2.40;;;6.20;99.90;;;;;;6211878;23;20099;-86
2023/01/14 10:32:16;;;;;;;16.98;2.88;;;6.50;99.90;;;;;;6184282;23;20043;-83
2023/01/14 10:34:52;;;;;;;10.90;2.53;;;6.50;99.90;;;;;;6184546;23;20094;-84
2023/01/14 10:37:18;;;;;;;11.20;2.67;;;6.30;99.90;;;;;;6187579;23;20011;-87
2023/01/14 10:39:50;;;;;;;6.32;1.80;;;6.50;99.90;;;;;;6212674;23;20438;-82
2023/01/14 10:42:23;;;;;;;9.27;1.83;;;6.80;99.90;;;;;;6210246;23;20059;-83
2023/01/14 10:44:49;;;;;;;10.10;2.10;;;6.40;99.90;;;;;;6187096;23;20042;-83
2023/01/14 10:47:17;;;;;;;6.35;1.95;;;6.50;99.90;;;;;;6213827;23;20021;-85
2023/01/14 10:49:48;;;;;;;8.52;2.10;;;6.60;99.90;;;;;;6211731;23;20024;-80
2023/01/14 10:52:20;;;;;;;21.33;2.10;;;6.80;99.90;;;;;;6184356;23;20044;-82
2023/01/14 10:54:58;;;;;;;10.50;2.42;;;7.10;99.90;;;;;;6184021;23;20017;-84
2023/01/14 10:57:25;;;;;;;7.63;1.98;;;7.10;99.90;;;;;;6212866;23;20437;-82
2023/01/14 10:59:54;;;;;;;12.23;2.25;;;6.70;99.90;;;;;;6185005;23;20027;-80
2023/01/14 11:02:38;;;;;;;8.90;2.08;;;7.20;99.90;;;;;;6186791;23;20047;-80
2023/01/14 11:05:27;;;;;;;7.70;2.10;;;6.60;99.90;;;;;;6212560;23;20095;-84
2023/01/14 11:07:55;;;;;;;7.38;1.90;;;7.20;99.90;;;;;;6215172;23;20023;-82
2023/01/14 11:10:23;;;;;;;7.38;1.98;;;7.10;99.90;;;;;;6218170;23;20057;-77
2023/01/14 11:12:52;;;;;;;7.85;1.90;;;7.00;99.90;;;;;;6197633;23;20032;-80
2023/01/14 11:15:38;;;;;;;11.48;1.88;;;7.30;99.90;;;;;;6188813;23;20071;-83
2023/01/14 11:18:19;;;;;;;6.68;1.85;;;7.00;99.90;;;;;;6186172;23;20432;-85
2023/01/14 11:21:06;;;;;;;10.73;1.85;;;7.30;99.90;;;;;;6214124;23;20402;-85
2023/01/14 11:23:38;;;;;;;9.85;1.60;;;7.00;99.90;;;;;;6187173;23;20020;-85
2023/01/14 11:26:08;;;;;;;5.63;1.33;;;7.20;99.90;;;;;;6211438;23;20447;-87
2023/01/14 11:28:42;;;;;;;5.47;1.67;;;7.20;99.90;;;;;;6184934;23;20305;-84
2023/01/14 11:31:09;;;;;;;7.28;1.70;;;7.30;99.90;;;;;;6185371;23;20012;-85
2023/01/14 11:33:34;;;;;;;16.75;5.30;;;7.40;99.90;;;;;;6184350;23;20353;-84
2023/01/14 11:36:02;;;;;;;8.55;3.20;;;7.10;99.90;;;;;;6209355;23;20044;-85
2023/01/14 11:38:28;;;;;;;5.43;1.98;;;7.30;99.90;;;;;;6210296;23;20048;-83
2023/01/14 11:43:54;;;;;;;8.77;2.20;;;7.40;99.90;;;;;;6209318;23;20444;-83
2023/01/14 11:46:20;;;;;;;8.85;1.80;;;6.80;99.90;;;;;;6184922;23;20012;-85
2023/01/14 11:48:59;;;;;;;6.05;1.70;;;7.30;99.90;;;;;;6186242;23;20677;-81
2023/01/14 11:51:27;;;;;;;6.50;1.80;;;7.40;99.90;;;;;;6184541;23;20354;-84
2023/01/14 11:53:55;;;;;;;7.30;1.73;;;7.40;99.90;;;;;;6210204;23;20092;-81
2023/01/14 11:56:36;;;;;;;6.40;1.65;;;7.40;99.90;;;;;;6187343;23;20023;-87
2023/01/14 11:59:25;;;;;;;7.30;1.75;;;7.40;99.90;;;;;;6214931;23;20020;-85
2023/01/14 12:01:55;;;;;;;11.45;1.83;;;7.20;99.90;;;;;;6211054;23;20013;-85
2023/01/14 12:04:29;;;;;;;6.78;1.65;;;6.90;99.90;;;;;;6214465;23;20051;-87
2023/01/14 12:07:00;;;;;;;4.47;1.60;;;7.20;99.90;;;;;;6187566;23;20334;-83
2023/01/14 12:09:44;;;;;;;6.25;1.77;;;7.20;99.90;;;;;;6217143;23;20539;-81
2023/01/14 12:12:13;;;;;;;5.35;1.80;;;7.50;99.90;;;;;;6201814;23;20455;-80
2023/01/14 12:17:49;;;;;;;5.68;2.10;;;6.90;99.90;;;;;;6231376;23;20417;-87
2023/01/14 12:20:18;;;;;;;6.88;1.95;;;6.90;99.90;;;;;;6188271;23;20328;-81
2023/01/14 12:22:52;;;;;;;7.60;1.70;;;7.00;99.90;;;;;;6213100;23;20013;-85
2023/01/14 12:25:24;;;;;;;5.43;1.58;;;7.50;99.90;;;;;;6213984;23;20044;-83
2023/01/14 12:28:02;;;;;;;5.35;1.38;;;7.20;99.90;;;;;;6187768;23;20009;-83
2023/01/14 12:31:05;;;;;;;7.70;1.80;;;7.00;99.90;;;;;;6184973;23;20310;-82
2023/01/14 12:33:39;;;;;;;6.40;1.50;;;7.60;99.90;;;;;;6187111;23;20444;-80
2023/01/14 12:36:34;;;;;;;5.50;1.45;;;7.30;99.90;;;;;;6186443;23;20019;-82
2023/01/14 12:48:06;;;;;;;4.40;1.40;;;7.70;99.90;;;;;;6124533;23;20014;-82
2023/01/14 12:50:34;;;;;;;7.65;2.45;;;7.60;99.90;;;;;;6122989;23;20026;-83
2023/01/14 12:52:59;;;;;;;5.18;1.60;;;7.30;99.90;;;;;;6145367;23;20069;-80
2023/01/14 12:55:39;;;;;;;5.90;2.65;;;7.70;99.90;;;;;;6123769;23;20026;-84
2023/01/14 12:58:14;;;;;;;6.25;1.90;;;7.90;99.90;;;;;;6094503;23;20085;-82
2023/01/14 13:00:41;;;;;;;6.22;1.95;;;7.60;99.90;;;;;;6070792;23;20172;-80
2023/01/14 13:03:14;;;;;;;4.88;2.28;;;7.90;99.90;;;;;;6093414;23;20309;-80
2023/01/14 13:05:42;;;;;;;3.95;2.00;;;7.80;99.90;;;;;;6092927;23;20013;-82
2023/01/14 13:08:28;;;;;;;7.10;2.30;;;8.10;99.90;;;;;;6070759;23;20024;-85
2023/01/14 13:11:03;;;;;;;4.47;1.95;;;8.10;99.90;;;;;;6094404;23;20058;-81
2023/01/14 13:13:33;;;;;;;5.32;1.80;;;8.20;99.90;;;;;;6071003;23;20434;-82
2023/01/14 13:16:03;;;;;;;3.83;1.35;;;8.00;99.90;;;;;;6154043;23;20084;-83
2023/01/14 13:18:34;;;;;;;4.28;2.17;;;8.40;99.90;;;;;;6184796;23;20051;-82
2023/01/14 13:21:05;;;;;;;6.65;1.50;;;8.20;99.90;;;;;;6183027;23;20104;-80
2023/01/14 13:23:37;;;;;;;3.38;1.33;;;8.20;99.90;;;;;;6181436;23;20024;-80
2023/01/14 13:26:20;;;;;;;4.97;1.10;;;8.10;99.90;;;;;;6204275;23;20019;-80
2023/01/14 13:29:16;;;;;;;3.30;1.40;;;8.20;99.90;;;;;;6206855;23;20100;-83
2023/01/14 13:31:43;;;;;;;4.15;1.20;;;8.40;99.90;;;;;;6209621;23;20071;-81
2023/01/14 13:34:21;;;;;;;5.10;1.20;;;8.60;99.90;;;;;;6208935;23;20012;-84
2023/01/14 13:37:08;;;;;;;4.35;1.50;;;8.30;99.90;;;;;;6204506;23;20777;-80
2023/01/14 13:39:34;;;;;;;4.30;1.50;;;8.10;99.90;;;;;;6181361;23;20054;-79
2023/01/14 13:42:16;;;;;;;2.15;1.20;;;8.70;99.90;;;;;;6181528;23;20413;-82
2023/01/14 13:44:48;;;;;;;3.40;1.20;;;8.80;99.90;;;;;;6181896;23;20023;-85
2023/01/14 13:47:28;;;;;;;5.88;0.82;;;8.80;99.90;;;;;;6208571;23;20463;-84
2023/01/14 13:50:42;;;;;;;1.48;0.90;;;8.50;99.90;;;;;;6180102;23;20078;-85
2023/01/14 13:53:16;;;;;;;1.80;1.10;;;8.90;99.90;;;;;;6091033;23;20048;-84
2023/01/14 13:55:52;;;;;;;2.17;0.98;;;9.00;99.90;;;;;;6093927;23;20024;-82
2023/01/14 13:58:22;;;;;;;2.70;0.80;;;8.60;99.90;;;;;;6092338;23;20862;-81
2023/01/14 14:01:25;;;;;;;3.88;2.20;;;8.60;99.90;;;;;;6092668;23;20050;-83
2023/01/14 14:03:55;;;;;;;4.43;2.70;;;8.90;99.90;;;;;;6091776;23;20088;-84
2023/01/14 14:06:21;;;;;;;1.73;0.82;;;8.80;99.90;;;;;;6091840;23;20115;-82